Time;durP1;ratioP1;P1;durP2;ratioP2;P2;SDS_P1;SDS_P2;PMS_P1;PMS_P2;Temp;Humidity;BMP_temperature;BMP_pressure;BME280_temperature;BME280_humidity;BME280_pressure;Samples;Min_cycle;Max_cycle;Signal;HPM_P1;HPM_P2
2023/12/23 00:00:53;;;;;;;16.33;3.70;;;;;;;3.67;100.00;99892.44;6183202;28;20548;-68
2023/12/23 00:04:14;;;;;;;5.50;1.73;;;;;;;3.67;100.00;99892.44;6176283;28;20230;-68
2023/12/23 00:07:35;;;;;;;4.33;2.03;;;;;;;3.70;100.00;99894.03;6180266;28;20245;-68
2023/12/23 00:10:56;;;;;;;4.97;2.13;;;;;;;3.71;100.00;99904.56;6178806;28;20694;-68
2023/12/23 00:14:17;;;;;;;5.70;2.47;;;;;;;3.64;100.00;99908.69;6189200;28;20250;-68
2023/12/23 00:17:39;;;;;;;2.87;1.90;;;;;;;3.72;100.00;99910.75;6179928;28;20234;-68
2023/12/23 00:21:02;;;;;;;3.63;1.50;;;;;;;3.76;100.00;99925.56;6182491;28;20316;-68
2023/12/23 00:24:24;;;;;;;3.97;1.63;;;;;;;3.73;100.00;99920.47;6167578;28;20309;-68
2023/12/23 00:27:45;;;;;;;7.20;2.17;;;;;;;3.67;100.00;99921.75;6180357;28;20695;-67
2023/12/23 00:31:05;;;;;;;3.10;1.40;;;;;;;3.63;100.00;99928.28;6184312;28;20237;-69
2023/12/23 00:34:28;;;;;;;24.13;3.20;;;;;;;3.66;100.00;99932.56;6182683;28;20627;-68
2023/12/23 00:37:49;;;;;;;4.80;2.23;;;;;;;3.67;100.00;99942.25;6180596;28;20225;-68
2023/12/23 00:41:10;;;;;;;6.70;2.87;;;;;;;3.68;100.00;99943.94;6186996;28;20237;-68
2023/12/23 00:44:31;;;;;;;2.53;1.43;;;;;;;3.68;100.00;99959.94;6176602;28;20229;-68
2023/12/23 00:47:52;;;;;;;2.50;1.53;;;;;;;3.71;100.00;99963.19;6179025;28;20242;-68
2023/12/23 00:51:15;;;;;;;4.83;2.47;;;;;;;3.67;100.00;99969.72;6171506;28;20325;-68
2023/12/23 00:54:35;;;;;;;2.60;1.97;;;;;;;3.65;100.00;99970.84;6189726;28;20245;-68
2023/12/23 00:57:56;;;;;;;4.57;2.27;;;;;;;3.68;100.00;99975.91;6179527;28;20241;-69
2023/12/23 01:01:17;;;;;;;9.50;2.23;;;;;;;3.70;100.00;99974.84;6180292;28;20237;-68
2023/12/23 01:04:38;;;;;;;3.57;2.93;;;;;;;3.71;100.00;99975.72;6187153;28;20356;-68
2023/12/23 01:08:01;;;;;;;6.00;2.43;;;;;;;3.73;100.00;99976.44;6180168;28;20234;-68
2023/12/23 01:11:21;;;;;;;2.20;1.73;;;;;;;3.68;100.00;99981.25;6183202;28;20230;-67
2023/12/23 01:14:42;;;;;;;2.03;1.57;;;;;;;3.70;100.00;99988.16;6182457;28;20246;-68
2023/12/23 01:18:04;;;;;;;3.13;1.40;;;;;;;3.69;100.00;99980.31;6178436;28;20233;-68
2023/12/23 01:21:24;;;;;;;2.97;1.90;;;;;;;3.63;100.00;99978.09;6173832;28;20234;-68
2023/12/23 01:24:46;;;;;;;4.20;2.30;;;;;;;3.64;100.00;99975.31;6188288;28;20225;-67
2023/12/23 01:28:07;;;;;;;5.27;1.97;;;;;;;3.64;100.00;99988.63;6176228;28;20545;-68
2023/12/23 01:31:28;;;;;;;2.73;2.20;;;;;;;3.65;100.00;99981.50;6185613;28;20248;-67
2023/12/23 01:34:49;;;;;;;4.97;1.67;;;;;;;3.53;100.00;99993.91;6178060;28;20234;-68
2023/12/23 01:38:10;;;;;;;6.77;2.17;;;;;;;3.62;100.00;99998.56;6190542;28;20227;-68
2023/12/23 01:41:32;;;;;;;11.57;2.83;;;;;;;3.55;100.00;100005.28;6179385;28;20694;-68
2023/12/23 01:44:53;;;;;;;2.90;1.83;;;;;;;3.64;100.00;99999.28;6195182;28;20584;-68
2023/12/23 01:48:14;;;;;;;4.63;1.97;;;;;;;3.61;100.00;100007.50;6174932;28;20236;-68
2023/12/23 01:51:36;;;;;;;3.27;2.13;;;;;;;3.66;100.00;100007.16;6168649;28;20238;-68
2023/12/23 01:54:58;;;;;;;4.33;1.70;;;;;;;3.74;100.00;99992.31;6172448;28;20238;-68
2023/12/23 01:58:21;;;;;;;3.67;2.93;;;;;;;3.86;100.00;99996.72;6185276;28;20233;-68
2023/12/23 02:01:43;;;;;;;3.60;1.93;;;;;;;3.86;100.00;99995.84;6177154;28;20233;-68
2023/12/23 02:05:05;;;;;;;3.23;2.37;;;;;;;3.97;100.00;99987.91;6175639;28;20586;-68
2023/12/23 02:08:26;;;;;;;7.33;3.67;;;;;;;3.87;100.00;99987.75;6168603;28;20229;-68
2023/12/23 02:11:56;;;;;;;2.80;2.30;;;;;;;3.74;100.00;99980.78;6189700;28;20710;-68
2023/12/23 02:15:20;;;;;;;4.53;2.63;;;;;;;3.75;100.00;99986.03;6190617;28;20234;-67
2023/12/23 02:18:41;;;;;;;11.67;2.43;;;;;;;3.80;100.00;99997.16;6188016;28;20541;-68
2023/12/23 02:22:03;;;;;;;7.13;3.33;;;;;;;3.81;100.00;99998.88;6176657;28;20225;-68
2023/12/23 02:25:24;;;;;;;3.97;2.80;;;;;;;3.84;100.00;99995.13;6181544;28;20328;-68
2023/12/23 02:28:51;;;;;;;5.27;1.60;;;;;;;3.97;100.00;99994.09;6182820;28;20237;-68
2023/12/23 02:32:13;;;;;;;4.23;2.27;;;;;;;3.96;100.00;99997.72;6176040;28;20568;-68
2023/12/23 02:35:34;;;;;;;5.23;2.20;;;;;;;3.99;100.00;99997.50;6176399;28;20316;-68
2023/12/23 02:38:57;;;;;;;3.77;1.97;;;;;;;4.02;100.00;99991.94;6173617;28;20225;-67
2023/12/23 02:42:18;;;;;;;5.83;2.23;;;;;;;4.02;100.00;99991.94;6180598;28;20233;-67
2023/12/23 02:45:39;;;;;;;12.50;2.60;;;;;;;4.10;100.00;99993.16;6179774;28;20275;-67
2023/12/23 02:49:02;;;;;;;5.47;2.17;;;;;;;4.20;100.00;99991.47;6187601;28;20548;-66
2023/12/23 02:52:23;;;;;;;7.23;1.83;;;;;;;4.22;100.00;99987.72;6185256;28;20324;-67
2023/12/23 02:55:46;;;;;;;9.03;2.10;;;;;;;4.33;100.00;99995.75;6186113;28;20593;-67
2023/12/23 02:59:07;;;;;;;4.83;1.70;;;;;;;4.43;100.00;99995.88;6180003;28;20217;-67
2023/12/23 03:02:28;;;;;;;5.40;1.90;;;;;;;4.34;100.00;99983.28;6183932;28;20316;-66
2023/12/23 03:05:49;;;;;;;5.47;1.90;;;;;;;4.29;100.00;99993.44;6180201;28;20221;-67
2023/12/23 03:09:09;;;;;;;6.60;3.13;;;;;;;4.24;100.00;99988.47;6181944;28;20321;-67
2023/12/23 03:12:32;;;;;;;7.43;2.70;;;;;;;4.23;100.00;100007.25;6186654;28;20777;-67
2023/12/23 03:15:53;;;;;;;4.43;1.57;;;;;;;4.24;100.00;99996.47;6181919;28;20233;-67
2023/12/23 03:19:14;;;;;;;4.03;2.03;;;;;;;4.22;100.00;99998.41;6191448;28;20225;-68
2023/12/23 03:22:35;;;;;;;9.83;1.90;;;;;;;4.20;100.00;100011.00;6190921;28;20599;-68
2023/12/23 03:25:56;;;;;;;8.60;2.60;;;;;;;4.22;100.00;100022.41;6190316;28;20226;-67
2023/12/23 03:29:18;;;;;;;5.60;1.77;;;;;;;4.26;100.00;99999.84;6193729;28;20234;-68
2023/12/23 03:32:39;;;;;;;5.10;2.03;;;;;;;4.24;100.00;100011.59;6194737;28;20233;-67
2023/12/23 03:36:00;;;;;;;5.70;1.43;;;;;;;4.19;100.00;100011.97;6183366;28;20233;-69
2023/12/23 03:39:21;;;;;;;3.50;1.60;;;;;;;4.27;100.00;100016.72;6200624;28;20237;-68
2023/12/23 03:42:42;;;;;;;2.63;1.20;;;;;;;4.21;100.00;99994.03;6183747;28;20226;-68
2023/12/23 03:46:05;;;;;;;2.53;1.83;;;;;;;4.17;100.00;99994.38;6188090;28;20225;-68
2023/12/23 03:49:26;;;;;;;4.63;2.07;;;;;;;4.20;100.00;99991.47;6181978;28;20519;-68
2023/12/23 03:52:47;;;;;;;3.17;1.77;;;;;;;4.11;100.00;99994.88;6183448;28;20368;-68
2023/12/23 03:56:08;;;;;;;3.53;1.87;;;;;;;4.19;100.00;100006.66;6188179;28;20237;-69
2023/12/23 03:59:29;;;;;;;2.13;1.37;;;;;;;4.23;100.00;100009.91;6188397;28;20738;-68
2023/12/23 04:02:51;;;;;;;3.97;1.60;;;;;;;4.08;100.00;100014.59;6172973;28;20301;-68
2023/12/23 04:06:13;;;;;;;6.23;1.83;;;;;;;4.17;100.00;100021.06;6179568;28;20230;-68
2023/12/23 04:09:33;;;;;;;2.77;1.43;;;;;;;4.08;100.00;100022.59;6176055;28;20262;-68
2023/12/23 04:12:54;;;;;;;3.63;1.97;;;;;;;3.89;100.00;100019.63;6176005;28;20246;-68
2023/12/23 04:16:15;;;;;;;4.10;1.40;;;;;;;3.74;100.00;100026.09;6185359;28;20317;-67
2023/12/23 04:19:38;;;;;;;6.87;1.83;;;;;;;3.57;100.00;100016.69;6175540;28;20237;-68
2023/12/23 04:22:59;;;;;;;5.20;2.00;;;;;;;3.48;100.00;99995.22;6192315;28;20233;-68
2023/12/23 04:26:19;;;;;;;4.07;1.53;;;;;;;3.36;100.00;99986.28;6191445;28;20230;-68
2023/12/23 04:29:40;;;;;;;1.20;1.03;;;;;;;3.45;100.00;99998.09;6181871;28;20238;-68
2023/12/23 04:33:01;;;;;;;2.30;1.20;;;;;;;3.29;100.00;99990.38;6190685;28;20258;-69
2023/12/23 04:36:24;;;;;;;4.50;1.10;;;;;;;3.57;100.00;99991.84;6190166;28;20229;-68
2023/12/23 04:39:44;;;;;;;5.53;1.40;;;;;;;3.74;100.00;100002.09;6175031;28;20249;-69
2023/12/23 04:43:05;;;;;;;2.77;1.30;;;;;;;3.95;100.00;100016.50;6181813;28;20225;-68
2023/12/23 04:46:26;;;;;;;3.90;1.47;;;;;;;4.11;100.00;100011.69;6182707;28;22115;-68
2023/12/23 04:49:47;;;;;;;5.93;2.17;;;;;;;4.06;100.00;100005.88;6173489;28;20230;-68
2023/12/23 04:53:10;;;;;;;2.53;1.23;;;;;;;4.07;100.00;100008.41;6181277;28;20312;-68
2023/12/23 04:56:30;;;;;;;4.97;2.60;;;;;;;4.08;100.00;100006.59;6177886;28;20230;-68
2023/12/23 04:59:51;;;;;;;3.87;1.73;;;;;;;4.20;100.00;100011.00;6191629;28;20308;-68
2023/12/23 05:03:12;;;;;;;6.80;1.90;;;;;;;4.20;100.00;100004.81;6181830;28;20329;-68
2023/12/23 05:06:33;;;;;;;1.10;1.00;;;;;;;4.05;100.00;100001.50;6178620;28;20225;-68
2023/12/23 05:09:55;;;;;;;3.03;2.07;;;;;;;3.96;100.00;100004.88;6175680;28;20238;-68
2023/12/23 05:13:16;;;;;;;4.47;1.53;;;;;;;3.77;100.00;100013.41;6179086;28;20251;-68
2023/12/23 05:16:37;;;;;;;2.83;1.67;;;;;;;3.85;100.00;100024.34;6177415;28;20249;-68
2023/12/23 05:19:58;;;;;;;2.73;1.27;;;;;;;3.81;100.00;100008.69;6175918;28;20516;-68
2023/12/23 05:23:19;;;;;;;1.57;1.47;;;;;;;3.70;100.00;100001.50;6173420;28;20242;-68
2023/12/23 05:26:41;;;;;;;10.23;2.00;;;;;;;3.88;100.00;100000.09;6185839;28;20285;-68
2023/12/23 05:30:03;;;;;;;1.60;1.00;;;;;;;3.79;100.00;99995.50;6191956;28;20226;-68
2023/12/23 05:33:25;;;;;;;2.57;1.37;;;;;;;3.87;100.00;99987.75;6178750;28;20242;-68
2023/12/23 05:36:46;;;;;;;1.83;1.30;;;;;;;3.89;100.00;99985.81;6177839;28;20819;-68
2023/12/23 05:40:07;;;;;;;3.13;1.70;;;;;;;4.01;100.00;99984.88;6176898;28;20233;-68
2023/12/23 05:43:30;;;;;;;3.93;1.83;;;;;;;4.03;100.00;99977.63;6173415;28;20371;-68
2023/12/23 05:46:51;;;;;;;3.90;1.27;;;;;;;3.89;100.00;99983.16;6175126;28;20230;-68
2023/12/23 05:50:12;;;;;;;1.77;1.33;;;;;;;4.07;100.00;99971.09;6173280;28;20238;-68
2023/12/23 05:53:33;;;;;;;0.90;0.83;;;;;;;4.09;100.00;99964.81;6183565;28;20233;-68
2023/12/23 05:56:53;;;;;;;6.30;1.40;;;;;;;4.24;100.00;99966.25;6177772;28;20612;-67
2023/12/23 06:00:19;;;;;;;4.53;1.97;;;;;;;4.27;100.00;99963.38;6175827;28;20239;-68
2023/12/23 06:03:40;;;;;;;12.43;2.27;;;;;;;4.32;100.00;99962.03;6176796;28;20230;-68
2023/12/23 06:07:01;;;;;;;2.50;1.50;;;;;;;4.30;100.00;99963.97;6172452;28;20222;-68
2023/12/23 06:10:22;;;;;;;2.10;1.40;;;;;;;4.29;100.00;99964.09;6177501;28;20246;-69
2023/12/23 06:13:42;;;;;;;7.00;1.87;;;;;;;4.27;100.00;99964.22;6176287;28;20335;-68
2023/12/23 06:17:05;;;;;;;1.10;1.00;;;;;;;4.30;100.00;99963.16;6176796;28;20238;-68
2023/12/23 06:20:25;;;;;;;2.03;1.00;;;;;;;4.32;100.00;99959.38;6176578;28;20229;-68
2023/12/23 06:23:46;;;;;;;3.47;1.50;;;;;;;4.21;100.00;99953.19;6181049;28;20316;-68
2023/12/23 06:27:07;;;;;;;1.93;1.10;;;;;;;4.25;100.00;99946.63;6180385;28;20257;-68
2023/12/23 06:30:28;;;;;;;2.17;1.13;;;;;;;4.22;100.00;99949.53;6185523;28;20561;-68
2023/12/23 06:33:50;;;;;;;3.17;1.07;;;;;;;4.18;100.00;99956.94;6183539;28;20310;-68
2023/12/23 06:37:11;;;;;;;2.60;1.10;;;;;;;4.19;100.00;99950.63;6190910;28;20804;-68
2023/12/23 06:40:32;;;;;;;9.00;5.10;;;;;;;4.14;100.00;99949.28;6186158;28;20256;-68
2023/12/23 06:43:53;;;;;;;2.53;1.10;;;;;;;4.11;100.00;99945.03;6181593;28;20242;-69
2023/12/23 06:47:14;;;;;;;2.07;0.80;;;;;;;4.21;100.00;99950.50;6187000;28;20230;-67
2023/12/23 06:50:36;;;;;;;2.53;1.07;;;;;;;4.13;100.00;99945.75;6186897;28;20221;-68
2023/12/23 06:53:57;;;;;;;1.63;1.10;;;;;;;4.12;100.00;99943.22;6187579;28;20233;-68
2023/12/23 06:57:18;;;;;;;3.90;2.30;;;;;;;4.13;100.00;99950.25;6182811;28;20237;-68
2023/12/23 07:00:39;;;;;;;2.87;1.60;;;;;;;4.04;100.00;99950.00;6191428;28;20225;-68
2023/12/23 07:04:00;;;;;;;1.30;0.90;;;;;;;3.88;100.00;99941.47;6186641;28;20234;-68
2023/12/23 07:07:22;;;;;;;1.87;1.10;;;;;;;3.94;100.00;99946.31;6189334;28;20222;-67
2023/12/23 07:10:43;;;;;;;1.37;1.00;;;;;;;3.94;100.00;99948.16;6180930;28;20261;-68
2023/12/23 07:14:04;;;;;;;0.93;0.93;;;;;;;3.85;100.00;99956.84;6186493;28;20223;-68
2023/12/23 07:17:25;;;;;;;0.67;0.67;;;;;;;3.90;100.00;99949.38;6190993;28;21041;-68
2023/12/23 07:20:47;;;;;;;1.97;1.20;;;;;;;3.76;100.00;99945.06;6182825;28;20464;-67
2023/12/23 07:24:09;;;;;;;2.90;1.30;;;;;;;3.80;100.00;99945.66;6183277;28;20222;-65
2023/12/23 07:27:30;;;;;;;1.37;0.70;;;;;;;3.84;100.00;99963.13;6182455;28;20229;-65
2023/12/23 07:30:51;;;;;;;1.10;1.10;;;;;;;3.76;100.00;99953.06;6183893;28;20229;-67
2023/12/23 07:34:12;;;;;;;0.70;0.70;;;;;;;3.67;100.00;99961.72;6179550;28;20234;-66
2023/12/23 07:37:33;;;;;;;9.70;2.10;;;;;;;4.60;100.00;99958.06;6180163;28;20245;-67
2023/12/23 07:40:55;;;;;;;4.20;1.47;;;;;;;3.76;100.00;99953.06;6178725;28;20234;-66
2023/12/23 07:44:16;;;;;;;0.70;0.70;;;;;;;3.49;100.00;99955.13;6175834;28;20242;-66
2023/12/23 07:47:37;;;;;;;1.50;0.97;;;;;;;3.45;100.00;99956.31;6176654;28;20626;-67
2023/12/23 07:50:58;;;;;;;0.93;0.87;;;;;;;3.44;100.00;99957.31;6174672;28;20637;-68
2023/12/23 07:54:19;;;;;;;6.80;2.57;;;;;;;3.41;100.00;99948.66;6187282;28;20249;-67
2023/12/23 07:57:42;;;;;;;0.70;0.70;;;;;;;3.17;100.00;99965.50;6186633;28;20229;-69
2023/12/23 08:01:03;;;;;;;1.50;0.63;;;;;;;3.25;100.00;99970.28;6191989;28;20238;-68
2023/12/23 08:04:24;;;;;;;0.90;0.60;;;;;;;3.31;100.00;99971.63;6196161;28;20352;-69
2023/12/23 08:07:45;;;;;;;0.60;0.60;;;;;;;3.05;100.00;99955.75;6198692;28;20229;-69
2023/12/23 08:11:07;;;;;;;2.13;1.93;;;;;;;3.04;100.00;99969.16;6189412;28;20233;-68
2023/12/23 08:14:29;;;;;;;2.20;0.90;;;;;;;3.15;100.00;99963.94;6187857;28;21305;-68
2023/12/23 08:17:50;;;;;;;1.00;0.70;;;;;;;3.16;100.00;99958.47;6176145;28;20559;-69
2023/12/23 08:21:11;;;;;;;0.93;0.70;;;;;;;3.14;100.00;99959.56;6189217;28;20233;-70
2023/12/23 08:24:33;;;;;;;0.60;0.60;;;;;;;3.10;100.00;99963.41;6187790;28;20233;-69
2023/12/23 08:27:54;;;;;;;3.80;1.00;;;;;;;3.14;100.00;99965.72;6169468;28;20650;-68
2023/12/23 08:31:16;;;;;;;0.83;0.63;;;;;;;2.96;100.00;99967.03;6169928;28;20257;-69
2023/12/23 08:34:37;;;;;;;0.83;0.83;;;;;;;2.76;100.00;99964.13;6175640;28;20241;-67
2023/12/23 08:37:58;;;;;;;1.53;0.87;;;;;;;2.74;100.00;99969.56;6169737;28;20242;-67
2023/12/23 08:41:20;;;;;;;0.67;0.67;;;;;;;2.82;100.00;99959.22;6164037;28;20229;-67
2023/12/23 08:44:41;;;;;;;1.30;1.20;;;;;;;2.81;100.00;99968.16;6168987;28;20229;-69
2023/12/23 08:48:03;;;;;;;1.07;1.00;;;;;;;2.91;100.00;99968.34;6160567;28;20237;-67
2023/12/23 08:51:24;;;;;;;3.43;1.40;;;;;;;3.04;100.00;99963.84;6159443;28;20234;-69
2023/12/23 08:54:44;;;;;;;19.20;16.77;;;;;;;3.21;100.00;99966.13;6159765;28;20234;-67
2023/12/23 08:58:05;;;;;;;2.40;1.80;;;;;;;3.17;100.00;99962.81;6170280;28;20324;-67
2023/12/23 09:01:26;;;;;;;2.03;1.43;;;;;;;2.92;100.00;99952.25;6155677;28;20257;-67
2023/12/23 09:04:49;;;;;;;1.67;1.30;;;;;;;2.83;100.00;99973.38;6157330;28;20256;-67
2023/12/23 09:08:10;;;;;;;1.17;1.10;;;;;;;3.01;100.00;99972.91;6154311;28;20238;-67
2023/12/23 09:11:31;;;;;;;1.40;1.30;;;;;;;3.26;100.00;99958.66;6153466;28;20313;-67
2023/12/23 09:14:52;;;;;;;1.40;1.00;;;;;;;3.06;100.00;99968.09;6149731;28;20257;-67
2023/12/23 09:18:13;;;;;;;3.27;1.00;;;;;;;2.94;100.00;99958.31;6168592;28;20237;-68
2023/12/23 09:21:35;;;;;;;0.83;0.83;;;;;;;3.08;100.00;99963.53;6179749;28;20222;-67
2023/12/23 09:24:56;;;;;;;2.57;1.10;;;;;;;3.14;100.00;99960.41;6170641;28;20511;-66
2023/12/23 09:28:17;;;;;;;1.40;1.30;;;;;;;3.23;100.00;99969.53;6188635;28;20252;-68
2023/12/23 09:31:38;;;;;;;1.20;1.10;;;;;;;3.39;100.00;99978.09;6190590;28;20229;-68
2023/12/23 09:34:59;;;;;;;3.03;1.30;;;;;;;3.62;100.00;99966.59;6201317;28;20249;-68
2023/12/23 09:38:21;;;;;;;3.53;1.37;;;;;;;3.71;100.00;99976.53;6203621;28;20229;-69
2023/12/23 09:41:42;;;;;;;2.07;1.03;;;;;;;3.88;100.00;99969.97;6199865;28;20279;-68
2023/12/23 09:45:04;;;;;;;1.47;1.10;;;;;;;3.93;100.00;99971.28;6198522;28;20245;-68
2023/12/23 09:48:25;;;;;;;1.57;1.47;;;;;;;3.90;100.00;99981.34;6207750;28;20225;-68
2023/12/23 09:51:46;;;;;;;1.53;1.13;;;;;;;3.92;100.00;99966.91;6193053;28;20233;-67
2023/12/23 09:55:11;;;;;;;0.90;0.90;;;;;;;4.03;100.00;99960.75;6197406;28;20241;-68
2023/12/23 09:58:32;;;;;;;1.60;1.50;;;;;;;3.99;100.00;99957.50;6191891;28;20237;-68
2023/12/23 10:01:54;;;;;;;0.87;0.87;;;;;;;4.04;100.00;99962.47;6189656;28;20233;-68
2023/12/23 10:05:15;;;;;;;1.20;0.83;;;;;;;4.02;100.00;99948.41;6195318;28;20603;-68
2023/12/23 10:08:36;;;;;;;1.33;1.33;;;;;;;4.09;100.00;99960.28;6201119;28;20226;-66
2023/12/23 10:11:58;;;;;;;0.67;0.67;;;;;;;4.13;100.00;99960.94;6204343;28;20248;-68
2023/12/23 10:15:19;;;;;;;0.50;0.50;;;;;;;4.25;100.00;99959.97;6196047;28;20233;-68
2023/12/23 10:18:40;;;;;;;3.03;0.90;;;;;;;4.29;100.00;99966.75;6184797;28;20237;-67
2023/12/23 10:22:02;;;;;;;1.00;0.70;;;;;;;4.41;100.00;99963.13;6200485;28;20268;-67
2023/12/23 10:25:22;;;;;;;1.77;1.67;;;;;;;4.53;100.00;99970.19;6190470;28;20695;-67
2023/12/23 10:28:53;;;;;;;1.10;1.10;;;;;;;4.47;100.00;99968.00;6193129;28;20516;-69
2023/12/23 10:32:21;;;;;;;1.13;0.80;;;;;;;4.53;100.00;99970.19;6200775;28;20228;-68
2023/12/23 10:35:44;;;;;;;3.80;0.97;;;;;;;4.55;100.00;99971.75;6200762;28;20236;-68
2023/12/23 10:39:10;;;;;;;6.27;0.97;;;;;;;4.54;100.00;99977.22;6187003;28;20309;-68
2023/12/23 10:42:32;;;;;;;2.37;1.10;;;;;;;4.58;100.00;99970.69;6185297;28;20233;-68
2023/12/23 10:45:55;;;;;;;1.60;1.30;;;;;;;4.56;100.00;99962.81;6195648;28;20234;-68
2023/12/23 10:49:18;;;;;;;3.37;1.30;;;;;;;4.62;100.00;99967.66;6186757;28;20510;-67
2023/12/23 10:52:41;;;;;;;2.67;1.30;;;;;;;4.68;100.00;99953.81;6197687;28;20332;-68
2023/12/23 10:56:02;;;;;;;0.97;0.90;;;;;;;4.72;100.00;99955.28;6196453;28;20241;-67
2023/12/23 10:59:23;;;;;;;0.87;0.87;;;;;;;4.52;100.00;99965.81;6196861;28;20246;-68
2023/12/23 11:02:49;;;;;;;0.93;0.90;;;;;;;4.54;100.00;99967.41;6188582;28;20555;-67
2023/12/23 11:06:12;;;;;;;1.23;0.80;;;;;;;4.57;100.00;99960.97;6199548;28;20320;-67
2023/12/23 11:09:34;;;;;;;1.57;1.13;;;;;;;4.69;100.00;99957.34;6187697;28;20250;-67
2023/12/23 11:12:56;;;;;;;1.03;0.80;;;;;;;4.78;100.00;99960.13;6199362;28;20604;-68
2023/12/23 11:16:17;;;;;;;1.20;1.10;;;;;;;4.78;100.00;99973.47;6202043;28;20244;-68
2023/12/23 11:19:41;;;;;;;1.13;1.00;;;;;;;4.94;100.00;99977.59;6202053;28;20484;-67
2023/12/23 11:23:32;;;;;;;2.50;1.67;;;;;;;4.89;100.00;99969.94;6187881;28;20229;-68
2023/12/23 11:26:54;;;;;;;1.63;1.50;;;;;;;4.79;100.00;99977.84;6186614;28;20230;-68
2023/12/23 11:30:15;;;;;;;0.90;0.90;;;;;;;4.73;100.00;99981.00;6198221;28;20846;-68
2023/12/23 11:33:36;;;;;;;1.00;1.00;;;;;;;4.83;100.00;99981.13;6204729;28;20253;-67
2023/12/23 11:36:58;;;;;;;4.10;2.03;;;;;;;4.78;100.00;99978.81;6191323;28;20651;-68
2023/12/23 11:40:20;;;;;;;1.40;0.83;;;;;;;4.73;100.00;99990.81;6192060;28;20237;-68
2023/12/23 11:43:43;;;;;;;2.97;1.10;;;;;;;4.84;100.00;99988.13;6196962;28;20230;-69
2023/12/23 11:47:05;;;;;;;2.00;0.87;;;;;;;4.78;100.00;99984.16;6195624;28;20230;-70
2023/12/23 11:50:26;;;;;;;1.90;1.13;;;;;;;4.73;100.00;99983.69;6189996;28;20600;-66
2023/12/23 11:53:49;;;;;;;1.23;0.80;;;;;;;4.67;100.00;99989.47;6199251;28;20246;-67
2023/12/23 11:57:11;;;;;;;1.17;1.17;;;;;;;4.82;100.00;99984.75;6192076;28;20503;-68
2023/12/23 12:00:36;;;;;;;1.73;1.63;;;;;;;4.99;100.00;99981.56;6170502;28;20258;-68
2023/12/23 12:03:57;;;;;;;1.93;1.20;;;;;;;5.03;100.00;99985.69;6187735;28;20226;-69
2023/12/23 12:07:19;;;;;;;0.80;0.80;;;;;;;5.03;100.00;99988.38;6188805;28;20237;-69
2023/12/23 12:10:41;;;;;;;2.43;1.20;;;;;;;5.09;100.00;99984.38;6192921;28;20238;-68
2023/12/23 12:14:04;;;;;;;1.43;1.00;;;;;;;5.01;100.00;99984.13;6192631;28;20230;-69
2023/12/23 12:17:25;;;;;;;0.60;0.60;;;;;;;5.04;100.00;99989.22;6199415;28;20230;-69
2023/12/23 12:20:46;;;;;;;0.80;0.80;;;;;;;5.00;100.00;99987.78;6201123;28;20249;-68
2023/12/23 12:24:07;;;;;;;1.47;0.80;;;;;;;4.98;100.00;99977.22;6209163;28;21917;-67
2023/12/23 12:27:30;;;;;;;1.03;1.03;;;;;;;4.88;100.00;99986.09;6198324;28;20237;-68
2023/12/23 12:30:51;;;;;;;0.90;0.87;;;;;;;4.93;100.00;99987.41;6199982;28;20620;-68
2023/12/23 12:34:12;;;;;;;1.97;1.80;;;;;;;5.05;100.00;99996.28;6197872;28;20571;-68
2023/12/23 12:37:34;;;;;;;1.73;1.40;;;;;;;5.12;100.00;99992.97;6206830;28;20533;-68
2023/12/23 12:40:55;;;;;;;0.90;0.90;;;;;;;5.08;100.00;99999.53;6198337;28;20473;-68
2023/12/23 12:44:19;;;;;;;1.00;1.00;;;;;;;5.20;100.00;100005.72;6204157;28;20229;-68
2023/12/23 12:47:40;;;;;;;1.93;1.53;;;;;;;5.00;100.00;100015.34;6193926;28;20218;-68
2023/12/23 12:51:02;;;;;;;1.30;1.20;;;;;;;4.97;100.00;100007.56;6207572;28;20233;-68
2023/12/23 12:54:25;;;;;;;0.83;0.70;;;;;;;4.93;100.00;100014.13;6212561;28;20778;-68
2023/12/23 12:57:46;;;;;;;3.57;1.80;;;;;;;4.90;100.00;100009.03;6187223;28;20746;-66
2023/12/23 13:01:08;;;;;;;0.90;0.90;;;;;;;4.96;100.00;100010.34;6193621;28;20234;-68
2023/12/23 13:04:29;;;;;;;1.47;1.37;;;;;;;4.96;100.00;100000.53;6187804;28;20573;-67
2023/12/23 13:07:52;;;;;;;0.87;0.70;;;;;;;5.04;100.00;100002.59;6196282;28;20232;-67
2023/12/23 13:11:12;;;;;;;0.67;0.67;;;;;;;4.95;100.00;100008.66;6194549;28;20225;-68
2023/12/23 13:14:33;;;;;;;0.83;0.83;;;;;;;5.00;100.00;100019.81;6210485;28;20229;-67
2023/12/23 13:17:56;;;;;;;0.73;0.73;;;;;;;5.01;100.00;100016.16;6192797;28;20595;-68
2023/12/23 13:21:17;;;;;;;4.00;1.27;;;;;;;4.97;100.00;100031.59;6199846;28;20229;-68
2023/12/23 13:24:38;;;;;;;11.07;2.90;;;;;;;5.01;100.00;100038.38;6203949;28;20349;-67
2023/12/23 13:27:59;;;;;;;1.27;1.00;;;;;;;4.97;100.00;100036.06;6195217;28;20229;-68
2023/12/23 13:31:20;;;;;;;0.77;0.77;;;;;;;4.99;100.00;100044.81;6183853;28;20232;-68
2023/12/23 13:34:44;;;;;;;1.07;0.80;;;;;;;4.98;100.00;100044.00;6195224;28;20229;-68
2023/12/23 13:38:05;;;;;;;1.90;0.80;;;;;;;5.00;100.00;100038.53;6205694;28;20234;-68
2023/12/23 13:41:28;;;;;;;3.10;1.07;;;;;;;4.90;100.00;100042.91;6193224;28;20502;-68
2023/12/23 13:44:49;;;;;;;2.03;0.87;;;;;;;4.94;100.00;100033.66;6203330;28;20236;-68
2023/12/23 13:48:10;;;;;;;0.50;0.50;;;;;;;4.88;100.00;100048.38;6189653;28;20671;-68
2023/12/23 13:51:32;;;;;;;1.27;0.60;;;;;;;4.95;100.00;100046.88;6190211;28;20615;-67
2023/12/23 13:54:53;;;;;;;1.13;1.03;;;;;;;4.99;100.00;100071.53;6200538;28;20245;-68
2023/12/23 13:58:14;;;;;;;1.50;0.77;;;;;;;5.00;100.00;100071.44;6202690;28;20237;-69
2023/12/23 14:01:35;;;;;;;0.70;0.70;;;;;;;4.95;100.00;100067.41;6191576;28;20234;-68
2023/12/23 14:04:56;;;;;;;0.80;0.80;;;;;;;4.97;100.00;100065.44;6186324;28;20229;-69
2023/12/23 14:08:18;;;;;;;1.00;1.00;;;;;;;4.97;100.00;100077.00;6198966;28;20237;-68
2023/12/23 14:11:39;;;;;;;1.70;1.63;;;;;;;5.01;100.00;100078.44;6196809;28;20230;-69
2023/12/23 14:15:00;;;;;;;2.10;1.60;;;;;;;5.04;100.00;100091.56;6207237;28;20485;-69
2023/12/23 14:18:21;;;;;;;2.53;1.70;;;;;;;5.02;100.00;100093.53;6188248;28;20606;-68
2023/12/23 14:21:42;;;;;;;1.27;1.27;;;;;;;5.02;100.00;100098.00;6198943;28;20234;-68
2023/12/23 14:25:05;;;;;;;0.90;0.90;;;;;;;4.99;100.00;100114.25;6187670;28;20233;-68
2023/12/23 14:28:26;;;;;;;0.90;0.70;;;;;;;4.98;100.00;100123.25;6187912;28;20222;-67
2023/12/23 14:31:48;;;;;;;1.50;1.37;;;;;;;5.03;100.00;100131.75;6189092;28;20667;-68
2023/12/23 14:35:10;;;;;;;1.83;1.27;;;;;;;5.03;100.00;100123.75;6184730;28;20237;-68
2023/12/23 14:38:31;;;;;;;4.87;2.63;;;;;;;5.01;100.00;100129.19;6199593;28;20311;-68
2023/12/23 14:41:53;;;;;;;3.57;3.17;;;;;;;5.02;100.00;100149.59;6204779;28;20229;-68
2023/12/23 14:45:14;;;;;;;4.07;3.57;;;;;;;5.08;100.00;100161.63;6201142;28;20241;-69
2023/12/23 14:48:35;;;;;;;1.87;1.63;;;;;;;4.98;100.00;100145.47;6195479;28;20234;-69
2023/12/23 14:51:56;;;;;;;1.17;1.17;;;;;;;4.98;100.00;100152.63;6212505;28;20233;-69
2023/12/23 14:55:17;;;;;;;3.53;0.97;;;;;;;4.90;100.00;100153.22;6195508;28;20230;-68
2023/12/23 14:58:39;;;;;;;1.80;0.80;;;;;;;4.75;100.00;100152.59;6191282;28;20237;-68
2023/12/23 15:02:01;;;;;;;0.70;0.70;;;;;;;4.75;100.00;100149.91;6197857;28;20234;-68
2023/12/23 15:05:22;;;;;;;0.87;0.53;;;;;;;4.81;100.00;100156.59;6190728;28;20245;-68
2023/12/23 15:08:43;;;;;;;0.80;0.80;;;;;;;4.85;100.00;100145.56;6190308;28;20226;-67
2023/12/23 15:12:04;;;;;;;1.17;0.93;;;;;;;4.85;100.00;100150.06;6200863;28;20229;-69
2023/12/23 15:15:27;;;;;;;1.83;1.30;;;;;;;4.86;100.00;100157.94;6202130;28;20230;-68
2023/12/23 15:18:48;;;;;;;0.93;0.73;;;;;;;4.88;100.00;100163.19;6205568;28;20499;-68
2023/12/23 15:22:09;;;;;;;0.70;0.70;;;;;;;4.94;100.00;100157.38;6192983;28;20242;-68
2023/12/23 15:25:30;;;;;;;1.30;1.20;;;;;;;5.03;100.00;100169.16;6191050;28;20229;-68
2023/12/23 15:28:51;;;;;;;2.10;1.83;;;;;;;5.00;100.00;100190.75;6200762;28;20241;-68
2023/12/23 15:32:13;;;;;;;2.23;0.90;;;;;;;5.05;100.00;100184.06;6196710;28;20257;-68
2023/12/23 15:35:34;;;;;;;3.07;0.87;;;;;;;5.06;100.00;100192.94;6189758;28;20268;-68
2023/12/23 15:38:55;;;;;;;1.50;1.40;;;;;;;5.05;100.00;100196.59;6181747;28;20234;-68
2023/12/23 15:42:16;;;;;;;2.53;2.33;;;;;;;5.09;100.00;100190.06;6202022;28;20236;-68
2023/12/23 15:45:37;;;;;;;1.50;1.03;;;;;;;4.99;100.00;100197.03;6206298;28;20233;-67